createdAt,value
2023-03-25T00:00:43.986Z,6.20
2023-03-25T00:06:57.358Z,6.70
2023-03-25T00:13:04.139Z,7.40
2023-03-25T00:19:05.944Z,6.90
2023-03-25T00:25:18.330Z,7.40
2023-03-25T00:31:19.926Z,5.00
2023-03-25T00:37:22.088Z,6.10
2023-03-25T00:43:23.587Z,5.80
2023-03-25T00:49:27.905Z,6.50
2023-03-25T00:55:29.471Z,6.70
2023-03-25T01:01:31.011Z,7.30
2023-03-25T01:07:32.774Z,8.30
2023-03-25T01:13:34.743Z,6.90
2023-03-25T01:19:36.359Z,9.00
2023-03-25T01:25:37.999Z,7.70
2023-03-25T01:31:40.470Z,9.20
2023-03-25T01:37:43.844Z,10.30
2023-03-25T01:44:05.891Z,12.50
2023-03-25T01:50:14.059Z,9.40
2023-03-25T01:56:19.442Z,10.00
2023-03-25T02:02:24.429Z,12.10
2023-03-25T02:08:26.178Z,8.60
2023-03-25T02:14:30.263Z,8.80
2023-03-25T02:20:40.976Z,10.50
2023-03-25T02:27:26.672Z,8.50
2023-03-25T02:33:44.997Z,8.60
2023-03-25T02:40:06.420Z,6.50
2023-03-25T02:46:11.554Z,8.10
2023-03-25T02:52:37.433Z,7.90
2023-03-25T02:58:39.718Z,7.00
2023-03-25T03:04:50.981Z,6.60
2023-03-25T03:11:01.964Z,7.50
2023-03-25T03:17:12.847Z,8.50
2023-03-25T03:23:53.985Z,10.00
2023-03-25T03:30:18.316Z,10.20
2023-03-25T03:36:23.609Z,9.40
2023-03-25T03:42:38.345Z,9.70
2023-03-25T03:48:43.638Z,8.80
2023-03-25T03:54:49.001Z,8.30
2023-03-25T04:00:53.852Z,8.40
2023-03-25T04:07:06.595Z,9.00
2023-03-25T04:13:11.128Z,8.10
2023-03-25T04:19:18.996Z,6.00
2023-03-25T04:25:24.731Z,4.50
2023-03-25T04:31:30.646Z,5.00
2023-03-25T04:37:36.352Z,4.50
2023-03-25T04:43:38.655Z,4.40
2023-03-25T04:49:44.222Z,4.90
2023-03-25T04:55:48.751Z,4.60
2023-03-25T05:01:52.037Z,4.70
2023-03-25T05:07:54.735Z,3.30
2023-03-25T05:13:56.389Z,5.30
2023-03-25T05:19:57.950Z,7.10
2023-03-25T05:26:02.285Z,7.10
2023-03-25T05:32:04.091Z,6.20
2023-03-25T05:38:07.980Z,6.40
2023-03-25T05:44:14.102Z,5.00
2023-03-25T05:50:16.165Z,7.00
2023-03-25T05:56:19.487Z,9.70
2023-03-25T06:02:21.468Z,6.50
2023-03-25T06:08:27.375Z,8.30
2023-03-25T06:14:31.879Z,9.30
2023-03-25T06:20:33.837Z,6.30
2023-03-25T06:26:35.513Z,9.10
2023-03-25T06:32:37.747Z,5.90
2023-03-25T06:38:39.841Z,7.10
2023-03-25T06:44:46.560Z,6.40
2023-03-25T06:51:08.626Z,6.50
2023-03-25T06:57:10.297Z,7.00
2023-03-25T07:03:12.597Z,7.20
2023-03-25T07:09:14.877Z,7.80
2023-03-25T07:15:16.481Z,7.40
2023-03-25T07:21:19.076Z,6.40
2023-03-25T07:27:20.566Z,6.40
2023-03-25T07:33:30.429Z,9.80
2023-03-25T07:39:31.902Z,7.10
2023-03-25T07:45:44.615Z,8.30
2023-03-25T07:51:46.425Z,6.60
2023-03-25T07:57:47.959Z,7.70
2023-03-25T08:03:49.599Z,9.10
2023-03-25T08:09:51.288Z,15.20
2023-03-25T08:15:53.439Z,9.70
2023-03-25T08:21:55.386Z,7.50
2023-03-25T08:27:57.127Z,6.10
2023-03-25T08:34:00.258Z,7.80
2023-03-25T08:40:06.912Z,5.80
2023-03-25T08:46:08.545Z,5.50
2023-03-25T08:52:10.180Z,6.10
2023-03-25T08:58:11.743Z,3.80
2023-03-25T09:04:13.411Z,3.60
2023-03-25T09:10:15.271Z,5.20
2023-03-25T09:16:17.149Z,4.00
2023-03-25T09:22:18.695Z,3.70
2023-03-25T09:28:20.401Z,3.60
2023-03-25T09:34:22.035Z,3.80
2023-03-25T09:40:24.061Z,3.00
2023-03-25T09:46:26.032Z,5.00
2023-03-25T09:52:35.201Z,3.20
2023-03-25T09:58:43.939Z,3.60
2023-03-25T10:05:17.859Z,3.60
2023-03-25T10:11:49.325Z,4.20
2023-03-25T10:18:14.149Z,4.30
2023-03-25T10:24:25.017Z,4.60
2023-03-25T10:30:50.882Z,3.80
2023-03-25T10:36:57.506Z,4.60
2023-03-25T10:49:21.496Z,3.70
2023-03-25T10:55:25.918Z,5.00
2023-03-25T11:01:46.232Z,3.50
2023-03-25T11:07:50.952Z,4.60
2023-03-25T11:13:56.614Z,4.40
2023-03-25T11:20:07.221Z,4.70
2023-03-25T11:26:29.769Z,4.70
2023-03-25T11:32:39.052Z,3.60
2023-03-25T11:38:40.973Z,1.80
2023-03-25T11:44:49.795Z,3.10
2023-03-25T11:50:57.480Z,4.20
2023-03-25T11:56:59.160Z,2.10
2023-03-25T12:03:02.643Z,2.40
2023-03-25T12:09:09.025Z,3.80
2023-03-25T12:15:38.055Z,3.80
2023-03-25T12:22:09.094Z,2.80
2023-03-25T12:28:55.937Z,2.40
2023-03-25T12:35:14.668Z,2.20
2023-03-25T12:41:31.018Z,1.70
2023-03-25T12:47:32.469Z,2.90
2023-03-25T12:53:52.754Z,2.70
2023-03-25T13:00:14.375Z,2.10
2023-03-25T13:06:43.432Z,1.40
2023-03-25T13:12:53.346Z,2.20
2023-03-25T13:19:13.493Z,1.20
2023-03-25T13:25:25.007Z,2.10
2023-03-25T13:31:35.479Z,2.00
2023-03-25T13:37:46.235Z,0.80
2023-03-25T13:43:55.456Z,2.30
2023-03-25T13:50:03.129Z,2.40
2023-03-25T13:56:40.930Z,3.80
2023-03-25T14:03:11.948Z,1.10
2023-03-25T14:09:48.690Z,2.10
2023-03-25T14:22:07.723Z,3.70
2023-03-25T14:28:16.113Z,2.50
2023-03-25T14:34:25.518Z,3.10
2023-03-25T14:41:02.229Z,3.20
2023-03-25T14:47:15.375Z,4.70
2023-03-25T14:53:18.029Z,2.70
2023-03-25T14:59:26.413Z,2.00
2023-03-25T15:05:29.445Z,2.90
2023-03-25T15:11:35.619Z,3.70
2023-03-25T15:17:48.522Z,3.90
2023-03-25T15:23:59.636Z,2.50
2023-03-25T15:30:32.796Z,2.40
2023-03-25T15:36:52.991Z,2.30
2023-03-25T15:43:05.391Z,2.50
2023-03-25T15:49:38.111Z,1.40
2023-03-25T15:55:45.839Z,3.40
2023-03-25T16:01:49.137Z,1.60
2023-03-25T16:07:51.040Z,3.30
2023-03-25T16:14:07.767Z,4.30
2023-03-25T16:20:14.821Z,3.50
2023-03-25T16:26:37.548Z,2.10
2023-03-25T16:32:39.044Z,3.20
2023-03-25T16:38:40.958Z,2.50
2023-03-25T16:44:42.718Z,3.20
2023-03-25T16:50:45.197Z,2.10
2023-03-25T16:57:09.633Z,2.50
2023-03-25T17:03:41.982Z,3.90
2023-03-25T17:09:50.057Z,3.70
2023-03-25T17:15:56.110Z,4.50
2023-03-25T17:22:31.602Z,6.80
2023-03-25T17:28:42.613Z,5.80
2023-03-25T17:34:55.195Z,5.80
2023-03-25T17:41:05.779Z,7.60
2023-03-25T17:47:12.944Z,5.90
2023-03-25T17:53:14.478Z,6.90
2023-03-25T17:59:18.659Z,9.50
2023-03-25T18:05:20.577Z,7.40
2023-03-25T18:11:25.093Z,7.50
2023-03-25T18:17:26.614Z,7.50
2023-03-25T18:23:28.292Z,7.50
2023-03-25T18:29:30.529Z,8.90
2023-03-25T18:35:33.326Z,6.90
2023-03-25T18:41:34.983Z,9.10
2023-03-25T18:47:37.738Z,10.30
2023-03-25T18:53:40.209Z,9.40
2023-03-25T18:59:41.809Z,10.60
2023-03-25T19:05:44.607Z,10.20
2023-03-25T19:11:46.693Z,8.10
2023-03-25T19:17:48.643Z,10.20
2023-03-25T19:23:51.449Z,11.60
2023-03-25T19:29:55.266Z,10.00
2023-03-25T19:36:00.429Z,12.40
2023-03-25T19:42:03.600Z,12.00
2023-03-25T19:48:05.337Z,18.00
2023-03-25T19:54:09.261Z,14.60
2023-03-25T20:00:16.862Z,16.70
2023-03-25T20:06:19.162Z,15.10
2023-03-25T20:12:21.112Z,17.20
2023-03-25T20:18:24.423Z,15.50
2023-03-25T20:24:26.141Z,16.90
2023-03-25T20:30:43.480Z,15.10
2023-03-25T20:36:55.877Z,17.20
2023-03-25T20:42:58.289Z,15.20
2023-03-25T20:49:02.649Z,15.20
2023-03-25T20:55:05.156Z,15.70
2023-03-25T21:01:08.523Z,16.20
2023-03-25T21:07:11.231Z,14.90
2023-03-25T21:13:14.167Z,13.80
2023-03-25T21:19:15.859Z,14.20
2023-03-25T21:25:20.433Z,13.20
2023-03-25T21:31:24.931Z,12.60
2023-03-25T21:37:29.147Z,15.20
2023-03-25T21:43:35.124Z,14.70
2023-03-25T21:49:37.597Z,15.10
2023-03-25T21:55:39.272Z,14.50
2023-03-25T22:01:41.053Z,13.60
2023-03-25T22:07:43.028Z,12.10
2023-03-25T22:13:45.165Z,10.00
2023-03-25T22:19:50.431Z,5.70
2023-03-25T22:25:52.107Z,6.40
2023-03-25T22:31:55.134Z,3.20
2023-03-25T22:37:56.672Z,3.70
2023-03-25T22:43:58.512Z,3.80
2023-03-25T22:50:00.329Z,4.40
2023-03-25T22:56:02.946Z,3.00
2023-03-25T23:02:04.804Z,2.70
2023-03-25T23:08:06.879Z,1.50
2023-03-25T23:14:11.461Z,1.80
2023-03-25T23:20:13.015Z,2.90
2023-03-25T23:26:20.990Z,1.70
2023-03-25T23:32:23.018Z,2.30
2023-03-25T23:38:24.571Z,1.40
2023-03-25T23:44:26.767Z,2.80
2023-03-25T23:50:28.304Z,2.40
2023-03-25T23:56:30.691Z,2.60
